sensor_id;sensor_type;location;lat;lon;timestamp;temperature;humidity
21439;DHT22;10880;50.302;18.736;2023-04-02T00:07:53;14.20;65.20
21439;DHT22;10880;50.302;18.736;2023-04-02T00:11:20;14.20;64.80
21439;DHT22;10880;50.302;18.736;2023-04-02T00:13:38;14.30;65.20
21439;DHT22;10880;50.302;18.736;2023-04-02T00:16:17;14.30;65.10
21439;DHT22;10880;50.302;18.736;2023-04-02T00:18:51;14.30;64.50
21439;DHT22;10880;50.302;18.736;2023-04-02T00:21:25;14.30;65.00
21439;DHT22;10880;50.302;18.736;2023-04-02T00:23:53;14.30;65.10
21439;DHT22;10880;50.302;18.736;2023-04-02T00:29:00;14.30;64.70
21439;DHT22;10880;50.302;18.736;2023-04-02T00:31:28;14.20;64.90
21439;DHT22;10880;50.302;18.736;2023-04-02T00:33:58;14.20;64.90
21439;DHT22;10880;50.302;18.736;2023-04-02T00:36:26;14.20;65.00
21439;DHT22;10880;50.302;18.736;2023-04-02T00:39:00;14.20;64.60
21439;DHT22;10880;50.302;18.736;2023-04-02T00:41:30;14.20;64.50
21439;DHT22;10880;50.302;18.736;2023-04-02T00:44:01;14.20;65.00
21439;DHT22;10880;50.302;18.736;2023-04-02T00:46:32;14.20;65.00
21439;DHT22;10880;50.302;18.736;2023-04-02T00:49:44;14.30;64.70
21439;DHT22;10880;50.302;18.736;2023-04-02T00:52:14;14.30;64.60
21439;DHT22;10880;50.302;18.736;2023-04-02T00:55:08;14.20;64.50
21439;DHT22;10880;50.302;18.736;2023-04-02T00:57:42;14.20;65.20
21439;DHT22;10880;50.302;18.736;2023-04-02T01:03:32;14.20;65.10
21439;DHT22;10880;50.302;18.736;2023-04-02T01:06:21;14.30;66.10
21439;DHT22;10880;50.302;18.736;2023-04-02T01:22:49;14.20;64.40
21439;DHT22;10880;50.302;18.736;2023-04-02T01:25:32;14.20;65.20
21439;DHT22;10880;50.302;18.736;2023-04-02T01:30:51;14.20;65.30
21439;DHT22;10880;50.302;18.736;2023-04-02T01:33:28;14.20;65.20
21439;DHT22;10880;50.302;18.736;2023-04-02T01:36:05;14.20;65.10
21439;DHT22;10880;50.302;18.736;2023-04-02T01:38:50;14.20;65.20
21439;DHT22;10880;50.302;18.736;2023-04-02T01:42:08;14.20;64.70
21439;DHT22;10880;50.302;18.736;2023-04-02T01:44:34;14.20;65.30
21439;DHT22;10880;50.302;18.736;2023-04-02T01:47:09;14.20;65.30
21439;DHT22;10880;50.302;18.736;2023-04-02T01:49:37;14.20;64.60
21439;DHT22;10880;50.302;18.736;2023-04-02T01:52:06;14.20;65.10
21439;DHT22;10880;50.302;18.736;2023-04-02T01:54:38;14.20;64.70
21439;DHT22;10880;50.302;18.736;2023-04-02T01:57:07;14.20;65.20
21439;DHT22;10880;50.302;18.736;2023-04-02T01:59:39;14.20;64.70
21439;DHT22;10880;50.302;18.736;2023-04-02T02:02:12;14.20;65.10
21439;DHT22;10880;50.302;18.736;2023-04-02T02:04:41;14.20;65.30
21439;DHT22;10880;50.302;18.736;2023-04-02T02:07:17;14.20;65.00
21439;DHT22;10880;50.302;18.736;2023-04-02T02:09:50;14.30;65.30
21439;DHT22;10880;50.302;18.736;2023-04-02T02:12:17;14.30;64.80
21439;DHT22;10880;50.302;18.736;2023-04-02T02:14:49;14.30;64.80
21439;DHT22;10880;50.302;18.736;2023-04-02T02:17:29;14.30;65.30
21439;DHT22;10880;50.302;18.736;2023-04-02T02:20:01;14.30;65.50
21439;DHT22;10880;50.302;18.736;2023-04-02T02:22:37;14.30;64.70
21439;DHT22;10880;50.302;18.736;2023-04-02T02:25:10;14.30;65.30
21439;DHT22;10880;50.302;18.736;2023-04-02T02:30:19;14.30;64.60
21439;DHT22;10880;50.302;18.736;2023-04-02T02:44:12;14.30;65.40
21439;DHT22;10880;50.302;18.736;2023-04-02T02:46:49;14.30;65.30
21439;DHT22;10880;50.302;18.736;2023-04-02T02:49:24;14.20;65.20
21439;DHT22;10880;50.302;18.736;2023-04-02T02:52:16;14.20;65.20
21439;DHT22;10880;50.302;18.736;2023-04-02T02:55:11;14.20;65.30
21439;DHT22;10880;50.302;18.736;2023-04-02T02:57:57;14.20;65.30
21439;DHT22;10880;50.302;18.736;2023-04-02T03:00:28;14.20;66.00
21439;DHT22;10880;50.302;18.736;2023-04-02T03:02:59;14.20;65.20
21439;DHT22;10880;50.302;18.736;2023-04-02T03:05:32;14.20;64.80
21439;DHT22;10880;50.302;18.736;2023-04-02T03:08:18;14.20;65.10
21439;DHT22;10880;50.302;18.736;2023-04-02T03:10:59;14.20;65.50
21439;DHT22;10880;50.302;18.736;2023-04-02T03:13:33;14.20;64.90
21439;DHT22;10880;50.302;18.736;2023-04-02T03:18:53;14.20;65.50
21439;DHT22;10880;50.302;18.736;2023-04-02T03:21:32;14.20;65.60
21439;DHT22;10880;50.302;18.736;2023-04-02T03:24:11;14.20;65.60
21439;DHT22;10880;50.302;18.736;2023-04-02T03:26:55;14.20;65.60
21439;DHT22;10880;50.302;18.736;2023-04-02T03:29:28;14.20;65.00
21439;DHT22;10880;50.302;18.736;2023-04-02T03:32:22;14.20;65.50
21439;DHT22;10880;50.302;18.736;2023-04-02T03:34:52;14.20;65.60
21439;DHT22;10880;50.302;18.736;2023-04-02T03:40:19;14.20;65.50
21439;DHT22;10880;50.302;18.736;2023-04-02T03:43:13;14.20;65.50
21439;DHT22;10880;50.302;18.736;2023-04-02T03:45:50;14.10;65.50
21439;DHT22;10880;50.302;18.736;2023-04-02T03:48:39;14.10;65.20
21439;DHT22;10880;50.302;18.736;2023-04-02T03:51:18;14.10;65.50
21439;DHT22;10880;50.302;18.736;2023-04-02T03:53:47;14.10;65.50
21439;DHT22;10880;50.302;18.736;2023-04-02T03:56:28;14.10;65.30
21439;DHT22;10880;50.302;18.736;2023-04-02T03:59:19;14.10;65.60
21439;DHT22;10880;50.302;18.736;2023-04-02T04:04:34;14.10;65.10
21439;DHT22;10880;50.302;18.736;2023-04-02T04:07:54;14.10;65.50
21439;DHT22;10880;50.302;18.736;2023-04-02T04:10:01;14.10;64.80
21439;DHT22;10880;50.302;18.736;2023-04-02T04:12:41;14.00;65.40
21439;DHT22;10880;50.302;18.736;2023-04-02T04:15:20;14.00;65.50
21439;DHT22;10880;50.302;18.736;2023-04-02T04:17:58;14.00;65.20
21439;DHT22;10880;50.302;18.736;2023-04-02T04:20:41;14.00;65.50
21439;DHT22;10880;50.302;18.736;2023-04-02T04:23:26;13.90;64.90
21439;DHT22;10880;50.302;18.736;2023-04-02T04:26:06;13.90;65.50
21439;DHT22;10880;50.302;18.736;2023-04-02T04:29:08;13.90;65.60
21439;DHT22;10880;50.302;18.736;2023-04-02T04:31:48;15.30;65.70
21439;DHT22;10880;50.302;18.736;2023-04-02T04:34:28;13.90;65.70
21439;DHT22;10880;50.302;18.736;2023-04-02T04:37:03;13.80;65.50
21439;DHT22;10880;50.302;18.736;2023-04-02T04:39:46;13.80;65.10
21439;DHT22;10880;50.302;18.736;2023-04-02T04:42:28;13.80;65.50
21439;DHT22;10880;50.302;18.736;2023-04-02T04:45:08;13.80;65.60
21439;DHT22;10880;50.302;18.736;2023-04-02T04:47:44;13.70;65.50
21439;DHT22;10880;50.302;18.736;2023-04-02T04:50:20;13.70;65.40
21439;DHT22;10880;50.302;18.736;2023-04-02T04:52:51;13.70;65.30
21439;DHT22;10880;50.302;18.736;2023-04-02T04:58:25;13.50;64.70
21439;DHT22;10880;50.302;18.736;2023-04-02T05:01:25;13.50;65.40
21439;DHT22;10880;50.302;18.736;2023-04-02T05:04:20;13.40;65.40
21439;DHT22;10880;50.302;18.736;2023-04-02T05:07:15;12.70;65.00
21439;DHT22;10880;50.302;18.736;2023-04-02T05:12:56;13.20;65.30
21439;DHT22;10880;50.302;18.736;2023-04-02T05:18:25;13.00;65.40
21439;DHT22;10880;50.302;18.736;2023-04-02T05:21:06;13.00;65.40
21439;DHT22;10880;50.302;18.736;2023-04-02T05:26:44;12.60;65.00
21439;DHT22;10880;50.302;18.736;2023-04-02T05:29:21;12.60;64.60
21439;DHT22;10880;50.302;18.736;2023-04-02T05:34:36;12.50;65.00
21439;DHT22;10880;50.302;18.736;2023-04-02T05:37:05;12.40;65.20
21439;DHT22;10880;50.302;18.736;2023-04-02T05:39:35;12.40;65.10
21439;DHT22;10880;50.302;18.736;2023-04-02T05:42:05;12.30;65.00
21439;DHT22;10880;50.302;18.736;2023-04-02T05:45:16;12.20;65.20
21439;DHT22;10880;50.302;18.736;2023-04-02T05:47:52;12.10;64.70
21439;DHT22;10880;50.302;18.736;2023-04-02T05:50:33;12.10;65.10
21439;DHT22;10880;50.302;18.736;2023-04-02T05:53:11;11.40;64.90
21439;DHT22;10880;50.302;18.736;2023-04-02T05:58:25;11.80;64.90
21439;DHT22;10880;50.302;18.736;2023-04-02T06:04:04;11.70;65.50
21439;DHT22;10880;50.302;18.736;2023-04-02T06:09:47;11.60;65.40
21439;DHT22;10880;50.302;18.736;2023-04-02T06:14:49;11.40;64.70
21439;DHT22;10880;50.302;18.736;2023-04-02T06:17:18;11.30;64.70
21439;DHT22;10880;50.302;18.736;2023-04-02T06:19:46;11.30;65.30
21439;DHT22;10880;50.302;18.736;2023-04-02T06:22:38;11.30;65.10
21439;DHT22;10880;50.302;18.736;2023-04-02T06:27:57;11.10;65.10
21439;DHT22;10880;50.302;18.736;2023-04-02T06:30:27;11.10;65.30
21439;DHT22;10880;50.302;18.736;2023-04-02T06:32:57;11.10;65.70
21439;DHT22;10880;50.302;18.736;2023-04-02T06:35:25;11.10;65.60
21439;DHT22;10880;50.302;18.736;2023-04-02T06:38:03;11.00;65.40
21439;DHT22;10880;50.302;18.736;2023-04-02T06:40:46;11.00;65.50
21439;DHT22;10880;50.302;18.736;2023-04-02T06:52:45;11.00;66.30
21439;DHT22;10880;50.302;18.736;2023-04-02T06:58:23;10.90;66.20
21439;DHT22;10880;50.302;18.736;2023-04-02T07:01:07;10.90;65.40
21439;DHT22;10880;50.302;18.736;2023-04-02T07:03:51;10.90;65.60
21439;DHT22;10880;50.302;18.736;2023-04-02T07:06:26;10.90;65.60
21439;DHT22;10880;50.302;18.736;2023-04-02T07:08:57;10.90;66.00
21439;DHT22;10880;50.302;18.736;2023-04-02T07:11:25;10.90;65.50
21439;DHT22;10880;50.302;18.736;2023-04-02T07:13:55;10.80;65.50
21439;DHT22;10880;50.302;18.736;2023-04-02T07:16:24;10.80;65.60
21439;DHT22;10880;50.302;18.736;2023-04-02T07:18:53;10.80;66.20
21439;DHT22;10880;50.302;18.736;2023-04-02T07:21:30;10.80;66.00
21439;DHT22;10880;50.302;18.736;2023-04-02T07:23:57;10.80;65.60
21439;DHT22;10880;50.302;18.736;2023-04-02T07:26:26;10.70;65.00
21439;DHT22;10880;50.302;18.736;2023-04-02T07:28:54;10.70;65.50
21439;DHT22;10880;50.302;18.736;2023-04-02T07:31:25;10.60;64.90
21439;DHT22;10880;50.302;18.736;2023-04-02T07:33:55;10.50;64.50
21439;DHT22;10880;50.302;18.736;2023-04-02T07:36:42;10.40;64.50
21439;DHT22;10880;50.302;18.736;2023-04-02T07:39:09;10.40;64.30
21439;DHT22;10880;50.302;18.736;2023-04-02T07:41:58;10.30;64.40
21439;DHT22;10880;50.302;18.736;2023-04-02T07:44:27;10.20;64.40
21439;DHT22;10880;50.302;18.736;2023-04-02T07:46:54;10.10;64.40
21439;DHT22;10880;50.302;18.736;2023-04-02T07:49:21;10.10;64.40
21439;DHT22;10880;50.302;18.736;2023-04-02T07:51:48;10.00;64.80
21439;DHT22;10880;50.302;18.736;2023-04-02T07:56:44;9.90;65.00
21439;DHT22;10880;50.302;18.736;2023-04-02T07:59:11;10.00;65.20
21439;DHT22;10880;50.302;18.736;2023-04-02T08:01:41;10.00;65.30
21439;DHT22;10880;50.302;18.736;2023-04-02T08:04:24;9.90;65.20
21439;DHT22;10880;50.302;18.736;2023-04-02T08:06:51;9.90;65.30
21439;DHT22;10880;50.302;18.736;2023-04-02T08:09:18;9.90;65.50
21439;DHT22;10880;50.302;18.736;2023-04-02T08:11:57;12.50;66.90
21439;DHT22;10880;50.302;18.736;2023-04-02T08:14:26;9.90;65.30
21439;DHT22;10880;50.302;18.736;2023-04-02T08:16:54;9.90;65.40
21439;DHT22;10880;50.302;18.736;2023-04-02T08:21:48;9.80;65.40
21439;DHT22;10880;50.302;18.736;2023-04-02T08:24:18;9.80;65.90
21439;DHT22;10880;50.302;18.736;2023-04-02T08:26:46;9.80;65.50
21439;DHT22;10880;50.302;18.736;2023-04-02T08:29:13;9.80;66.00
21439;DHT22;10880;50.302;18.736;2023-04-02T08:31:40;9.80;65.50
21439;DHT22;10880;50.302;18.736;2023-04-02T08:34:11;9.80;65.50
21439;DHT22;10880;50.302;18.736;2023-04-02T08:36:40;9.80;65.50
21439;DHT22;10880;50.302;18.736;2023-04-02T08:39:09;9.80;65.50
21439;DHT22;10880;50.302;18.736;2023-04-02T08:41:57;9.70;65.50
21439;DHT22;10880;50.302;18.736;2023-04-02T08:44:48;9.70;66.10
21439;DHT22;10880;50.302;18.736;2023-04-02T08:47:18;9.70;65.50
21439;DHT22;10880;50.302;18.736;2023-04-02T08:50:02;9.70;66.00
21439;DHT22;10880;50.302;18.736;2023-04-02T08:52:35;9.70;66.10
21439;DHT22;10880;50.302;18.736;2023-04-02T08:55:19;9.60;65.60
21439;DHT22;10880;50.302;18.736;2023-04-02T09:00:44;9.60;65.60
21439;DHT22;10880;50.302;18.736;2023-04-02T09:03:26;9.60;65.70
21439;DHT22;10880;50.302;18.736;2023-04-02T09:05:53;9.60;66.20
21439;DHT22;10880;50.302;18.736;2023-04-02T09:08:28;9.60;65.70
21439;DHT22;10880;50.302;18.736;2023-04-02T09:11:17;9.60;67.20
21439;DHT22;10880;50.302;18.736;2023-04-02T09:13:56;9.50;66.30
21439;DHT22;10880;50.302;18.736;2023-04-02T09:16:41;9.50;65.70
21439;DHT22;10880;50.302;18.736;2023-04-02T09:19:35;9.50;66.50
21439;DHT22;10880;50.302;18.736;2023-04-02T09:22:23;9.50;65.80
21439;DHT22;10880;50.302;18.736;2023-04-02T09:24:59;9.50;66.60
21439;DHT22;10880;50.302;18.736;2023-04-02T09:27:30;9.50;66.10
21439;DHT22;10880;50.302;18.736;2023-04-02T09:30:17;9.50;66.10
21439;DHT22;10880;50.302;18.736;2023-04-02T09:32:50;9.50;66.20
21439;DHT22;10880;50.302;18.736;2023-04-02T09:35:25;9.50;66.70
21439;DHT22;10880;50.302;18.736;2023-04-02T09:38:20;9.50;66.40
21439;DHT22;10880;50.302;18.736;2023-04-02T09:43:21;9.50;66.70
21439;DHT22;10880;50.302;18.736;2023-04-02T09:46:04;9.50;67.10
21439;DHT22;10880;50.302;18.736;2023-04-02T09:48:44;9.50;67.40
21439;DHT22;10880;50.302;18.736;2023-04-02T09:53:47;9.60;66.80
21439;DHT22;10880;50.302;18.736;2023-04-02T09:56:18;9.60;66.70
21439;DHT22;10880;50.302;18.736;2023-04-02T09:59:16;9.60;66.40
21439;DHT22;10880;50.302;18.736;2023-04-02T10:07:05;9.60;66.80
21439;DHT22;10880;50.302;18.736;2023-04-02T10:09:36;9.60;66.50
21439;DHT22;10880;50.302;18.736;2023-04-02T10:12:09;9.60;66.50
21439;DHT22;10880;50.302;18.736;2023-04-02T10:14:40;9.60;66.60
21439;DHT22;10880;50.302;18.736;2023-04-02T10:17:20;9.60;66.80
21439;DHT22;10880;50.302;18.736;2023-04-02T10:19:51;9.60;66.50
21439;DHT22;10880;50.302;18.736;2023-04-02T10:22:21;9.60;66.50
21439;DHT22;10880;50.302;18.736;2023-04-02T10:33:15;9.60;66.40
21439;DHT22;10880;50.302;18.736;2023-04-02T10:38:54;9.60;66.50
21439;DHT22;10880;50.302;18.736;2023-04-02T10:41:40;9.60;67.20
21439;DHT22;10880;50.302;18.736;2023-04-02T10:44:17;9.60;67.00
21439;DHT22;10880;50.302;18.736;2023-04-02T10:49:37;9.60;67.20
21439;DHT22;10880;50.302;18.736;2023-04-02T10:52:25;9.60;67.10
21439;DHT22;10880;50.302;18.736;2023-04-02T10:55:01;9.60;67.80
21439;DHT22;10880;50.302;18.736;2023-04-02T10:57:41;9.60;66.50
21439;DHT22;10880;50.302;18.736;2023-04-02T11:03:13;9.70;66.70
21439;DHT22;10880;50.302;18.736;2023-04-02T11:05:54;9.70;66.70
21439;DHT22;10880;50.302;18.736;2023-04-02T11:11:14;9.70;66.90
21439;DHT22;10880;50.302;18.736;2023-04-02T11:14:09;9.70;66.50
21439;DHT22;10880;50.302;18.736;2023-04-02T11:16:37;9.70;66.50
21439;DHT22;10880;50.302;18.736;2023-04-02T11:22:13;9.70;66.40
21439;DHT22;10880;50.302;18.736;2023-04-02T11:24:49;9.70;66.30
21439;DHT22;10880;50.302;18.736;2023-04-02T11:27:31;9.80;66.30
21439;DHT22;10880;50.302;18.736;2023-04-02T11:30:24;9.70;66.80
21439;DHT22;10880;50.302;18.736;2023-04-02T11:32:51;9.80;66.40
21439;DHT22;10880;50.302;18.736;2023-04-02T11:40:56;9.80;66.90
21439;DHT22;10880;50.302;18.736;2023-04-02T11:48:51;9.40;65.70
21439;DHT22;10880;50.302;18.736;2023-04-02T11:53:57;9.80;65.90
21439;DHT22;10880;50.302;18.736;2023-04-02T11:56:42;9.80;65.70
21439;DHT22;10880;50.302;18.736;2023-04-02T12:02:02;9.80;65.90
21439;DHT22;10880;50.302;18.736;2023-04-02T12:10:31;9.80;65.60
21439;DHT22;10880;50.302;18.736;2023-04-02T12:12:59;9.70;65.50
21439;DHT22;10880;50.302;18.736;2023-04-02T12:18:18;9.70;66.00
21439;DHT22;10880;50.302;18.736;2023-04-02T12:20:55;9.70;66.10
21439;DHT22;10880;50.302;18.736;2023-04-02T12:23:31;9.70;66.10
21439;DHT22;10880;50.302;18.736;2023-04-02T12:26:07;9.70;65.80
21439;DHT22;10880;50.302;18.736;2023-04-02T12:28:37;9.70;65.90
21439;DHT22;10880;50.302;18.736;2023-04-02T12:31:14;9.80;66.00
21439;DHT22;10880;50.302;18.736;2023-04-02T12:33:48;9.80;66.50
21439;DHT22;10880;50.302;18.736;2023-04-02T12:36:22;9.80;65.70
21439;DHT22;10880;50.302;18.736;2023-04-02T12:38:56;9.80;65.90
21439;DHT22;10880;50.302;18.736;2023-04-02T12:46:36;9.90;65.50
21439;DHT22;10880;50.302;18.736;2023-04-02T12:51:51;9.90;65.70
21439;DHT22;10880;50.302;18.736;2023-04-02T12:54:19;9.80;65.80
21439;DHT22;10880;50.302;18.736;2023-04-02T12:56:52;9.80;65.90
21439;DHT22;10880;50.302;18.736;2023-04-02T12:59:35;9.80;65.30
21439;DHT22;10880;50.302;18.736;2023-04-02T13:02:15;9.80;64.90
21439;DHT22;10880;50.302;18.736;2023-04-02T13:04:48;9.80;65.80
21439;DHT22;10880;50.302;18.736;2023-04-02T13:07:24;9.90;65.50
21439;DHT22;10880;50.302;18.736;2023-04-02T13:09:53;9.80;66.10
21439;DHT22;10880;50.302;18.736;2023-04-02T13:12:35;9.90;65.40
21439;DHT22;10880;50.302;18.736;2023-04-02T13:15:06;9.90;66.10
21439;DHT22;10880;50.302;18.736;2023-04-02T13:17:47;9.90;65.90
21439;DHT22;10880;50.302;18.736;2023-04-02T13:20:41;9.90;65.80
21439;DHT22;10880;50.302;18.736;2023-04-02T13:25:59;10.00;65.50
21439;DHT22;10880;50.302;18.736;2023-04-02T13:28:28;10.00;65.10
21439;DHT22;10880;50.302;18.736;2023-04-02T13:30:54;10.00;65.20
21439;DHT22;10880;50.302;18.736;2023-04-02T13:33:24;10.00;64.70
21439;DHT22;10880;50.302;18.736;2023-04-02T13:35:51;9.90;64.80
21439;DHT22;10880;50.302;18.736;2023-04-02T13:38:24;8.60;63.40
21439;DHT22;10880;50.302;18.736;2023-04-02T13:41:00;9.90;65.00
21439;DHT22;10880;50.302;18.736;2023-04-02T13:43:31;9.90;64.50
21439;DHT22;10880;50.302;18.736;2023-04-02T13:45:58;9.90;64.40
21439;DHT22;10880;50.302;18.736;2023-04-02T13:48:26;9.90;64.60
21439;DHT22;10880;50.302;18.736;2023-04-02T13:50:54;9.90;65.00
21439;DHT22;10880;50.302;18.736;2023-04-02T13:53:29;9.90;64.80
21439;DHT22;10880;50.302;18.736;2023-04-02T13:55:59;9.80;65.10
21439;DHT22;10880;50.302;18.736;2023-04-02T13:58:26;9.80;64.50
21439;DHT22;10880;50.302;18.736;2023-04-02T14:00:55;9.80;64.50
21439;DHT22;10880;50.302;18.736;2023-04-02T14:03:22;9.80;65.10
21439;DHT22;10880;50.302;18.736;2023-04-02T14:11:52;9.70;64.30
21439;DHT22;10880;50.302;18.736;2023-04-02T14:25:18;9.60;65.00
21439;DHT22;10880;50.302;18.736;2023-04-02T14:30:44;9.70;65.00
21439;DHT22;10880;50.302;18.736;2023-04-02T14:35:57;9.60;64.70
21439;DHT22;10880;50.302;18.736;2023-04-02T14:39:04;9.60;64.60
21439;DHT22;10880;50.302;18.736;2023-04-02T14:41:57;9.60;63.80
21439;DHT22;10880;50.302;18.736;2023-04-02T14:44:42;9.60;64.10
21439;DHT22;10880;50.302;18.736;2023-04-02T14:47:36;9.60;64.20
21439;DHT22;10880;50.302;18.736;2023-04-02T14:50:26;9.60;64.20
21439;DHT22;10880;50.302;18.736;2023-04-02T14:53:03;9.50;64.10
21439;DHT22;10880;50.302;18.736;2023-04-02T14:55:42;9.50;64.60
21439;DHT22;10880;50.302;18.736;2023-04-02T14:58:25;9.50;64.10
21439;DHT22;10880;50.302;18.736;2023-04-02T15:01:09;9.50;64.10
21439;DHT22;10880;50.302;18.736;2023-04-02T15:03:46;9.50;64.60
21439;DHT22;10880;50.302;18.736;2023-04-02T15:07:04;9.50;64.60
21439;DHT22;10880;50.302;18.736;2023-04-02T15:09:34;9.50;64.10
21439;DHT22;10880;50.302;18.736;2023-04-02T15:12:09;9.50;64.80
21439;DHT22;10880;50.302;18.736;2023-04-02T15:14:47;9.50;64.60
21439;DHT22;10880;50.302;18.736;2023-04-02T15:17:16;10.80;64.80
21439;DHT22;10880;50.302;18.736;2023-04-02T15:19:46;9.50;64.40
21439;DHT22;10880;50.302;18.736;2023-04-02T15:25:35;9.50;64.80
21439;DHT22;10880;50.302;18.736;2023-04-02T15:28:16;9.50;64.00
21439;DHT22;10880;50.302;18.736;2023-04-02T15:30:44;9.60;64.60
21439;DHT22;10880;50.302;18.736;2023-04-02T15:44:09;9.60;63.60
21439;DHT22;10880;50.302;18.736;2023-04-02T15:58:19;9.50;63.00
21439;DHT22;10880;50.302;18.736;2023-04-02T16:12:19;9.30;63.00
21439;DHT22;10880;50.302;18.736;2023-04-02T16:14:48;9.20;63.00
21439;DHT22;10880;50.302;18.736;2023-04-02T16:17:25;9.20;63.00
21439;DHT22;10880;50.302;18.736;2023-04-02T16:19:59;9.20;63.60
21439;DHT22;10880;50.302;18.736;2023-04-02T16:22:35;9.20;63.00
21439;DHT22;10880;50.302;18.736;2023-04-02T16:25:23;9.10;62.90
21439;DHT22;10880;50.302;18.736;2023-04-02T16:28:50;9.10;62.90
21439;DHT22;10880;50.302;18.736;2023-04-02T16:31:09;9.00;62.90
21439;DHT22;10880;50.302;18.736;2023-04-02T16:34:00;9.00;63.00
21439;DHT22;10880;50.302;18.736;2023-04-02T16:39:20;9.00;63.50
21439;DHT22;10880;50.302;18.736;2023-04-02T16:50:03;8.90;63.40
21439;DHT22;10880;50.302;18.736;2023-04-02T16:55:24;8.80;63.50
21439;DHT22;10880;50.302;18.736;2023-04-02T16:58:29;8.90;63.60
21439;DHT22;10880;50.302;18.736;2023-04-02T17:01:07;8.80;63.60
21439;DHT22;10880;50.302;18.736;2023-04-02T17:15:07;8.80;63.80
21439;DHT22;10880;50.302;18.736;2023-04-02T17:17:28;8.80;64.40
21439;DHT22;10880;50.302;18.736;2023-04-02T17:20:00;8.80;63.90
21439;DHT22;10880;50.302;18.736;2023-04-02T17:22:43;8.80;64.00
21439;DHT22;10880;50.302;18.736;2023-04-02T17:25:34;8.80;64.00
21439;DHT22;10880;50.302;18.736;2023-04-02T17:28:09;8.80;64.00
21439;DHT22;10880;50.302;18.736;2023-04-02T17:30:47;8.90;64.10
21439;DHT22;10880;50.302;18.736;2023-04-02T17:41:52;8.80;63.90
21439;DHT22;10880;50.302;18.736;2023-04-02T17:53:54;8.80;63.90
21439;DHT22;10880;50.302;18.736;2023-04-02T18:05:05;8.80;63.90
21439;DHT22;10880;50.302;18.736;2023-04-02T18:13:40;8.80;63.90
21439;DHT22;10880;50.302;18.736;2023-04-02T18:22:52;8.80;63.90
21439;DHT22;10880;50.302;18.736;2023-04-02T18:28:22;8.80;63.90
21439;DHT22;10880;50.302;18.736;2023-04-02T18:42:46;8.70;63.90
21439;DHT22;10880;50.302;18.736;2023-04-02T18:51:17;8.60;64.00
21439;DHT22;10880;50.302;18.736;2023-04-02T18:53:48;8.60;64.10
21439;DHT22;10880;50.302;18.736;2023-04-02T18:56:19;8.60;64.10
21439;DHT22;10880;50.302;18.736;2023-04-02T18:59:17;8.60;64.20
21439;DHT22;10880;50.302;18.736;2023-04-02T19:01:51;8.60;64.10
21439;DHT22;10880;50.302;18.736;2023-04-02T19:05:21;8.60;64.20
21439;DHT22;10880;50.302;18.736;2023-04-02T19:08:27;8.60;64.30
21439;DHT22;10880;50.302;18.736;2023-04-02T19:11:37;8.60;64.90
21439;DHT22;10880;50.302;18.736;2023-04-02T19:14:36;8.60;64.20
21439;DHT22;10880;50.302;18.736;2023-04-02T19:17:37;8.60;64.20
21439;DHT22;10880;50.302;18.736;2023-04-02T19:20:45;8.60;64.20
21439;DHT22;10880;50.302;18.736;2023-04-02T19:36:02;8.60;64.30
21439;DHT22;10880;50.302;18.736;2023-04-02T19:42:43;8.60;64.30
21439;DHT22;10880;50.302;18.736;2023-04-02T19:45:44;8.70;64.40
21439;DHT22;10880;50.302;18.736;2023-04-02T19:48:25;8.60;64.20
21439;DHT22;10880;50.302;18.736;2023-04-02T19:51:19;8.60;64.40
21439;DHT22;10880;50.302;18.736;2023-04-02T19:53:53;8.60;64.30
21439;DHT22;10880;50.302;18.736;2023-04-02T19:56:50;8.60;64.40
21439;DHT22;10880;50.302;18.736;2023-04-02T19:59:25;8.60;64.40
21439;DHT22;10880;50.302;18.736;2023-04-02T20:02:20;8.60;64.40
21439;DHT22;10880;50.302;18.736;2023-04-02T20:04:55;8.60;64.30
21439;DHT22;10880;50.302;18.736;2023-04-02T20:07:51;8.60;64.40
21439;DHT22;10880;50.302;18.736;2023-04-02T20:10:28;8.60;64.40
21439;DHT22;10880;50.302;18.736;2023-04-02T20:13:29;8.50;64.30
21439;DHT22;10880;50.302;18.736;2023-04-02T20:16:05;8.60;64.30
21439;DHT22;10880;50.302;18.736;2023-04-02T20:19:01;8.50;64.70
21439;DHT22;10880;50.302;18.736;2023-04-02T20:21:34;8.50;64.40
21439;DHT22;10880;50.302;18.736;2023-04-02T20:24:31;8.50;64.30
21439;DHT22;10880;50.302;18.736;2023-04-02T20:29:59;8.50;64.40
21439;DHT22;10880;50.302;18.736;2023-04-02T20:35:28;8.40;64.40
21439;DHT22;10880;50.302;18.736;2023-04-02T20:38:03;8.40;64.80
21439;DHT22;10880;50.302;18.736;2023-04-02T20:40:59;8.40;64.40
21439;DHT22;10880;50.302;18.736;2023-04-02T20:43:40;8.40;64.40
21439;DHT22;10880;50.302;18.736;2023-04-02T20:46:35;8.40;64.50
21439;DHT22;10880;50.302;18.736;2023-04-02T20:49:10;8.30;65.10
21439;DHT22;10880;50.302;18.736;2023-04-02T20:52:04;8.30;64.40
21439;DHT22;10880;50.302;18.736;2023-04-02T20:54:38;8.30;64.90
21439;DHT22;10880;50.302;18.736;2023-04-02T20:57:32;8.30;64.60
21439;DHT22;10880;50.302;18.736;2023-04-02T21:03:00;8.30;64.60
21439;DHT22;10880;50.302;18.736;2023-04-02T21:05:55;8.30;65.10
21439;DHT22;10880;50.302;18.736;2023-04-02T21:08:28;8.30;64.90
21439;DHT22;10880;50.302;18.736;2023-04-02T21:11:22;8.30;64.60
21439;DHT22;10880;50.302;18.736;2023-04-02T21:13:55;8.30;64.90
21439;DHT22;10880;50.302;18.736;2023-04-02T21:16:48;8.30;65.10
21439;DHT22;10880;50.302;18.736;2023-04-02T21:19:21;8.20;64.90
21439;DHT22;10880;50.302;18.736;2023-04-02T21:22:14;8.30;65.20
21439;DHT22;10880;50.302;18.736;2023-04-02T21:24:48;8.20;65.00
21439;DHT22;10880;50.302;18.736;2023-04-02T21:27:41;8.20;65.00
21439;DHT22;10880;50.302;18.736;2023-04-02T21:30:14;8.20;64.90
21439;DHT22;10880;50.302;18.736;2023-04-02T21:33:07;8.20;65.00
21439;DHT22;10880;50.302;18.736;2023-04-02T21:35:40;8.20;65.00
21439;DHT22;10880;50.302;18.736;2023-04-02T21:38:33;8.20;64.60
21439;DHT22;10880;50.302;18.736;2023-04-02T21:41:15;8.20;64.90
21439;DHT22;10880;50.302;18.736;2023-04-02T21:44:12;8.20;65.10
21439;DHT22;10880;50.302;18.736;2023-04-02T21:46:46;8.10;65.00
21439;DHT22;10880;50.302;18.736;2023-04-02T21:49:44;8.10;64.60
21439;DHT22;10880;50.302;18.736;2023-04-02T21:52:18;8.10;64.80
21439;DHT22;10880;50.302;18.736;2023-04-02T21:55:12;8.10;64.50
21439;DHT22;10880;50.302;18.736;2023-04-02T21:57:44;8.10;64.90
21439;DHT22;10880;50.302;18.736;2023-04-02T22:00:38;8.00;64.40
21439;DHT22;10880;50.302;18.736;2023-04-02T22:03:12;8.00;64.90
21439;DHT22;10880;50.302;18.736;2023-04-02T22:06:12;8.00;64.40
21439;DHT22;10880;50.302;18.736;2023-04-02T22:08:52;8.00;64.50
21439;DHT22;10880;50.302;18.736;2023-04-02T22:11:54;8.00;64.50
21439;DHT22;10880;50.302;18.736;2023-04-02T22:14:30;8.00;64.50